sensor_id;sensor_type;location;lat;lon;timestamp;P1;durP1;ratioP1;P2;durP2;ratioP2
1026;SDS011;502;48.746;9.214;2023-05-02T00:00:13;7.43;;;6.70;;
1026;SDS011;502;48.746;9.214;2023-05-02T00:02:40;8.47;;;7.07;;
1026;SDS011;502;48.746;9.214;2023-05-02T00:05:08;7.83;;;7.07;;
1026;SDS011;502;48.746;9.214;2023-05-02T00:07:35;7.10;;;6.40;;
1026;SDS011;502;48.746;9.214;2023-05-02T00:10:02;6.80;;;6.10;;
1026;SDS011;502;48.746;9.214;2023-05-02T00:12:30;7.97;;;7.17;;
1026;SDS011;502;48.746;9.214;2023-05-02T00:14:56;8.60;;;6.33;;
1026;SDS011;502;48.746;9.214;2023-05-02T00:17:23;7.73;;;6.90;;
1026;SDS011;502;48.746;9.214;2023-05-02T00:19:49;7.57;;;6.77;;
1026;SDS011;502;48.746;9.214;2023-05-02T00:22:17;6.40;;;5.80;;
1026;SDS011;502;48.746;9.214;2023-05-02T00:24:44;6.73;;;6.13;;
1026;SDS011;502;48.746;9.214;2023-05-02T00:27:10;7.30;;;6.60;;
1026;SDS011;502;48.746;9.214;2023-05-02T00:29:37;7.77;;;6.70;;
1026;SDS011;502;48.746;9.214;2023-05-02T00:32:04;7.27;;;6.57;;
1026;SDS011;502;48.746;9.214;2023-05-02T00:34:31;7.20;;;6.50;;
1026;SDS011;502;48.746;9.214;2023-05-02T00:36:57;8.10;;;7.30;;
1026;SDS011;502;48.746;9.214;2023-05-02T00:39:26;8.23;;;7.40;;
1026;SDS011;502;48.746;9.214;2023-05-02T00:41:55;8.23;;;7.13;;
1026;SDS011;502;48.746;9.214;2023-05-02T00:44:22;7.63;;;6.93;;
1026;SDS011;502;48.746;9.214;2023-05-02T00:46:48;6.83;;;6.13;;
1026;SDS011;502;48.746;9.214;2023-05-02T00:49:15;7.40;;;6.60;;
1026;SDS011;502;48.746;9.214;2023-05-02T00:51:42;7.23;;;6.53;;
1026;SDS011;502;48.746;9.214;2023-05-02T00:54:09;6.70;;;6.00;;
1026;SDS011;502;48.746;9.214;2023-05-02T00:56:37;6.60;;;6.00;;
1026;SDS011;502;48.746;9.214;2023-05-02T00:59:04;7.90;;;6.63;;
1026;SDS011;502;48.746;9.214;2023-05-02T01:01:32;7.77;;;7.00;;
1026;SDS011;502;48.746;9.214;2023-05-02T01:04:05;10.43;;;7.20;;
1026;SDS011;502;48.746;9.214;2023-05-02T01:06:38;7.90;;;7.10;;
1026;SDS011;502;48.746;9.214;2023-05-02T01:09:15;7.93;;;7.13;;
1026;SDS011;502;48.746;9.214;2023-05-02T01:11:50;9.57;;;7.63;;
1026;SDS011;502;48.746;9.214;2023-05-02T01:14:21;8.60;;;7.70;;
1026;SDS011;502;48.746;9.214;2023-05-02T01:16:49;8.40;;;7.40;;
1026;SDS011;502;48.746;9.214;2023-05-02T01:19:19;8.17;;;7.37;;
1026;SDS011;502;48.746;9.214;2023-05-02T01:21:47;8.20;;;7.10;;
1026;SDS011;502;48.746;9.214;2023-05-02T01:24:16;8.20;;;7.33;;
1026;SDS011;502;48.746;9.214;2023-05-02T01:26:49;7.77;;;6.97;;
1026;SDS011;502;48.746;9.214;2023-05-02T01:29:19;7.27;;;6.67;;
1026;SDS011;502;48.746;9.214;2023-05-02T01:31:48;8.33;;;7.53;;
1026;SDS011;502;48.746;9.214;2023-05-02T01:34:16;8.10;;;7.30;;
1026;SDS011;502;48.746;9.214;2023-05-02T01:36:44;10.30;;;7.97;;
1026;SDS011;502;48.746;9.214;2023-05-02T01:39:13;8.67;;;7.50;;
1026;SDS011;502;48.746;9.214;2023-05-02T01:41:49;7.70;;;6.90;;
1026;SDS011;502;48.746;9.214;2023-05-02T01:44:16;8.00;;;7.30;;
1026;SDS011;502;48.746;9.214;2023-05-02T01:46:45;8.80;;;7.90;;
1026;SDS011;502;48.746;9.214;2023-05-02T01:49:12;8.97;;;8.07;;
1026;SDS011;502;48.746;9.214;2023-05-02T01:51:41;7.97;;;7.17;;
1026;SDS011;502;48.746;9.214;2023-05-02T01:54:10;7.97;;;7.17;;
1026;SDS011;502;48.746;9.214;2023-05-02T01:56:39;8.77;;;7.53;;
1026;SDS011;502;48.746;9.214;2023-05-02T01:59:08;8.73;;;7.90;;
1026;SDS011;502;48.746;9.214;2023-05-02T02:01:38;8.10;;;7.33;;
1026;SDS011;502;48.746;9.214;2023-05-02T02:04:08;8.60;;;7.70;;
1026;SDS011;502;48.746;9.214;2023-05-02T02:06:35;9.77;;;8.73;;
1026;SDS011;502;48.746;9.214;2023-05-02T02:09:03;8.40;;;7.50;;
1026;SDS011;502;48.746;9.214;2023-05-02T02:11:32;9.40;;;8.00;;
1026;SDS011;502;48.746;9.214;2023-05-02T02:14:01;9.50;;;8.30;;
1026;SDS011;502;48.746;9.214;2023-05-02T02:16:31;8.70;;;7.53;;
1026;SDS011;502;48.746;9.214;2023-05-02T02:19:03;8.80;;;7.90;;
1026;SDS011;502;48.746;9.214;2023-05-02T02:21:31;8.73;;;7.73;;
1026;SDS011;502;48.746;9.214;2023-05-02T02:24:00;8.83;;;7.77;;
1026;SDS011;502;48.746;9.214;2023-05-02T02:26:28;8.20;;;7.03;;
1026;SDS011;502;48.746;9.214;2023-05-02T02:28:54;9.60;;;7.60;;
1026;SDS011;502;48.746;9.214;2023-05-02T02:31:21;9.10;;;8.17;;
1026;SDS011;502;48.746;9.214;2023-05-02T02:33:49;8.67;;;7.53;;
1026;SDS011;502;48.746;9.214;2023-05-02T02:36:18;9.60;;;8.40;;
1026;SDS011;502;48.746;9.214;2023-05-02T02:38:49;9.20;;;7.70;;
1026;SDS011;502;48.746;9.214;2023-05-02T02:41:22;10.30;;;9.20;;
1026;SDS011;502;48.746;9.214;2023-05-02T02:43:56;8.60;;;7.70;;
1026;SDS011;502;48.746;9.214;2023-05-02T02:46:28;9.23;;;8.33;;
1026;SDS011;502;48.746;9.214;2023-05-02T02:49:02;9.17;;;7.90;;
1026;SDS011;502;48.746;9.214;2023-05-02T02:51:38;9.83;;;8.33;;
1026;SDS011;502;48.746;9.214;2023-05-02T02:54:12;9.27;;;8.27;;
1026;SDS011;502;48.746;9.214;2023-05-02T02:56:40;8.70;;;7.77;;
1026;SDS011;502;48.746;9.214;2023-05-02T02:59:11;9.30;;;8.00;;
1026;SDS011;502;48.746;9.214;2023-05-02T03:01:41;9.30;;;8.40;;
1026;SDS011;502;48.746;9.214;2023-05-02T03:04:09;10.93;;;9.30;;
1026;SDS011;502;48.746;9.214;2023-05-02T03:06:38;11.67;;;8.60;;
1026;SDS011;502;48.746;9.214;2023-05-02T03:09:05;9.00;;;8.00;;
1026;SDS011;502;48.746;9.214;2023-05-02T03:11:31;10.83;;;9.57;;
1026;SDS011;502;48.746;9.214;2023-05-02T03:13:58;12.03;;;10.27;;
1026;SDS011;502;48.746;9.214;2023-05-02T03:16:30;11.20;;;10.00;;
1026;SDS011;502;48.746;9.214;2023-05-02T03:19:00;12.30;;;9.27;;
1026;SDS011;502;48.746;9.214;2023-05-02T03:21:27;11.00;;;9.27;;
1026;SDS011;502;48.746;9.214;2023-05-02T03:23:58;10.13;;;8.93;;
1026;SDS011;502;48.746;9.214;2023-05-02T03:26:25;10.20;;;9.00;;
1026;SDS011;502;48.746;9.214;2023-05-02T03:28:52;9.43;;;8.43;;
1026;SDS011;502;48.746;9.214;2023-05-02T03:31:26;10.93;;;8.93;;
1026;SDS011;502;48.746;9.214;2023-05-02T03:33:52;11.40;;;9.10;;
1026;SDS011;502;48.746;9.214;2023-05-02T03:36:19;8.70;;;7.80;;
1026;SDS011;502;48.746;9.214;2023-05-02T03:38:46;10.13;;;9.13;;
1026;SDS011;502;48.746;9.214;2023-05-02T03:41:14;10.23;;;9.10;;
1026;SDS011;502;48.746;9.214;2023-05-02T03:43:41;9.67;;;8.67;;
1026;SDS011;502;48.746;9.214;2023-05-02T03:46:08;8.33;;;7.50;;
1026;SDS011;502;48.746;9.214;2023-05-02T03:48:39;9.47;;;8.47;;
1026;SDS011;502;48.746;9.214;2023-05-02T03:51:05;9.30;;;8.40;;
1026;SDS011;502;48.746;9.214;2023-05-02T03:53:38;9.23;;;8.20;;
1026;SDS011;502;48.746;9.214;2023-05-02T03:56:05;8.60;;;7.47;;
1026;SDS011;502;48.746;9.214;2023-05-02T03:58:44;9.53;;;8.53;;
1026;SDS011;502;48.746;9.214;2023-05-02T04:01:12;9.13;;;8.13;;
1026;SDS011;502;48.746;9.214;2023-05-02T04:03:40;7.80;;;7.00;;
1026;SDS011;502;48.746;9.214;2023-05-02T04:06:08;8.47;;;7.57;;
1026;SDS011;502;48.746;9.214;2023-05-02T04:08:37;9.43;;;7.80;;
1026;SDS011;502;48.746;9.214;2023-05-02T04:11:04;9.10;;;7.77;;
1026;SDS011;502;48.746;9.214;2023-05-02T04:13:30;7.80;;;6.80;;
1026;SDS011;502;48.746;9.214;2023-05-02T04:15:58;9.10;;;8.10;;
1026;SDS011;502;48.746;9.214;2023-05-02T04:18:28;8.80;;;7.60;;
1026;SDS011;502;48.746;9.214;2023-05-02T04:20:56;10.70;;;8.17;;
1026;SDS011;502;48.746;9.214;2023-05-02T04:23:23;10.03;;;9.03;;
1026;SDS011;502;48.746;9.214;2023-05-02T04:25:54;9.70;;;8.77;;
1026;SDS011;502;48.746;9.214;2023-05-02T04:28:28;9.33;;;8.10;;
1026;SDS011;502;48.746;9.214;2023-05-02T04:30:55;11.10;;;9.70;;
1026;SDS011;502;48.746;9.214;2023-05-02T04:33:25;10.17;;;9.10;;
1026;SDS011;502;48.746;9.214;2023-05-02T04:35:52;10.63;;;9.43;;
1026;SDS011;502;48.746;9.214;2023-05-02T04:38:21;9.80;;;8.80;;
1026;SDS011;502;48.746;9.214;2023-05-02T04:40:49;11.77;;;9.47;;
1026;SDS011;502;48.746;9.214;2023-05-02T04:43:16;11.00;;;9.00;;
1026;SDS011;502;48.746;9.214;2023-05-02T04:45:48;13.10;;;9.40;;
1026;SDS011;502;48.746;9.214;2023-05-02T04:48:22;9.43;;;8.37;;
1026;SDS011;502;48.746;9.214;2023-05-02T04:50:51;10.37;;;9.37;;
1026;SDS011;502;48.746;9.214;2023-05-02T04:53:20;10.73;;;9.63;;
1026;SDS011;502;48.746;9.214;2023-05-02T04:55:47;10.67;;;9.43;;
1026;SDS011;502;48.746;9.214;2023-05-02T04:58:14;11.37;;;10.20;;
1026;SDS011;502;48.746;9.214;2023-05-02T05:00:43;11.47;;;10.37;;
1026;SDS011;502;48.746;9.214;2023-05-02T05:03:09;10.47;;;9.40;;
1026;SDS011;502;48.746;9.214;2023-05-02T05:05:36;10.40;;;9.30;;
1026;SDS011;502;48.746;9.214;2023-05-02T05:08:07;10.60;;;9.50;;
1026;SDS011;502;48.746;9.214;2023-05-02T05:10:35;13.63;;;10.10;;
1026;SDS011;502;48.746;9.214;2023-05-02T05:13:02;12.70;;;10.20;;
1026;SDS011;502;48.746;9.214;2023-05-02T05:15:30;10.50;;;9.50;;
1026;SDS011;502;48.746;9.214;2023-05-02T05:17:59;10.13;;;9.00;;
1026;SDS011;502;48.746;9.214;2023-05-02T05:20:26;10.70;;;9.63;;
1026;SDS011;502;48.746;9.214;2023-05-02T05:22:56;12.00;;;9.53;;
1026;SDS011;502;48.746;9.214;2023-05-02T05:25:25;10.97;;;9.80;;
1026;SDS011;502;48.746;9.214;2023-05-02T05:27:53;10.73;;;9.63;;
1026;SDS011;502;48.746;9.214;2023-05-02T05:30:20;11.70;;;10.30;;
1026;SDS011;502;48.746;9.214;2023-05-02T05:32:47;11.07;;;9.90;;
1026;SDS011;502;48.746;9.214;2023-05-02T05:35:14;12.40;;;11.10;;
1026;SDS011;502;48.746;9.214;2023-05-02T05:37:40;13.60;;;12.07;;
1026;SDS011;502;48.746;9.214;2023-05-02T05:40:10;14.23;;;12.67;;
1026;SDS011;502;48.746;9.214;2023-05-02T05:42:41;13.30;;;11.27;;
1026;SDS011;502;48.746;9.214;2023-05-02T05:45:13;12.03;;;10.73;;
1026;SDS011;502;48.746;9.214;2023-05-02T05:47:41;13.53;;;11.40;;
1026;SDS011;502;48.746;9.214;2023-05-02T05:50:08;14.50;;;12.10;;
1026;SDS011;502;48.746;9.214;2023-05-02T05:52:36;13.10;;;11.70;;
1026;SDS011;502;48.746;9.214;2023-05-02T05:55:03;13.77;;;11.97;;
1026;SDS011;502;48.746;9.214;2023-05-02T05:57:31;14.40;;;10.50;;
1026;SDS011;502;48.746;9.214;2023-05-02T05:59:59;13.13;;;11.73;;
1026;SDS011;502;48.746;9.214;2023-05-02T06:02:26;14.23;;;12.60;;
1026;SDS011;502;48.746;9.214;2023-05-02T06:04:54;15.10;;;11.20;;
1026;SDS011;502;48.746;9.214;2023-05-02T06:07:23;14.20;;;12.37;;
1026;SDS011;502;48.746;9.214;2023-05-02T06:09:49;15.40;;;11.50;;
1026;SDS011;502;48.746;9.214;2023-05-02T06:12:16;14.93;;;12.10;;
1026;SDS011;502;48.746;9.214;2023-05-02T06:14:44;14.13;;;12.47;;
1026;SDS011;502;48.746;9.214;2023-05-02T06:17:13;14.20;;;12.37;;
1026;SDS011;502;48.746;9.214;2023-05-02T06:19:39;12.57;;;11.30;;
1026;SDS011;502;48.746;9.214;2023-05-02T06:22:06;14.17;;;12.67;;
1026;SDS011;502;48.746;9.214;2023-05-02T06:24:32;15.77;;;11.43;;
1026;SDS011;502;48.746;9.214;2023-05-02T06:26:59;15.47;;;13.77;;
1026;SDS011;502;48.746;9.214;2023-05-02T06:29:26;15.50;;;11.90;;
1026;SDS011;502;48.746;9.214;2023-05-02T06:31:53;15.17;;;13.43;;
1026;SDS011;502;48.746;9.214;2023-05-02T06:34:22;15.10;;;13.33;;
1026;SDS011;502;48.746;9.214;2023-05-02T06:36:52;16.13;;;13.40;;
1026;SDS011;502;48.746;9.214;2023-05-02T06:39:19;15.73;;;13.20;;
1026;SDS011;502;48.746;9.214;2023-05-02T06:41:46;16.30;;;14.50;;
1026;SDS011;502;48.746;9.214;2023-05-02T06:44:15;15.97;;;14.27;;
1026;SDS011;502;48.746;9.214;2023-05-02T06:46:42;15.07;;;13.20;;
1026;SDS011;502;48.746;9.214;2023-05-02T06:49:08;15.83;;;14.17;;
1026;SDS011;502;48.746;9.214;2023-05-02T06:51:36;16.70;;;15.00;;
1026;SDS011;502;48.746;9.214;2023-05-02T06:54:03;20.10;;;16.30;;
1026;SDS011;502;48.746;9.214;2023-05-02T06:56:31;19.87;;;15.17;;
1026;SDS011;502;48.746;9.214;2023-05-02T06:58:57;18.37;;;15.10;;
1026;SDS011;502;48.746;9.214;2023-05-02T07:01:24;19.20;;;14.83;;
1026;SDS011;502;48.746;9.214;2023-05-02T07:03:50;17.17;;;14.87;;
1026;SDS011;502;48.746;9.214;2023-05-02T07:06:17;18.20;;;14.83;;
1026;SDS011;502;48.746;9.214;2023-05-02T07:08:45;21.63;;;16.00;;
1026;SDS011;502;48.746;9.214;2023-05-02T07:11:11;19.23;;;16.73;;
1026;SDS011;502;48.746;9.214;2023-05-02T07:13:38;16.40;;;14.50;;
1026;SDS011;502;48.746;9.214;2023-05-02T07:16:05;19.07;;;15.87;;
1026;SDS011;502;48.746;9.214;2023-05-02T07:18:32;16.20;;;14.50;;
1026;SDS011;502;48.746;9.214;2023-05-02T07:20:59;17.87;;;16.07;;
1026;SDS011;502;48.746;9.214;2023-05-02T07:23:26;18.17;;;16.27;;
1026;SDS011;502;48.746;9.214;2023-05-02T07:25:54;19.57;;;16.10;;
1026;SDS011;502;48.746;9.214;2023-05-02T07:28:20;16.60;;;14.80;;
1026;SDS011;502;48.746;9.214;2023-05-02T07:30:50;19.07;;;15.60;;
1026;SDS011;502;48.746;9.214;2023-05-02T07:33:17;20.57;;;16.97;;
1026;SDS011;502;48.746;9.214;2023-05-02T07:35:43;18.63;;;15.23;;
1026;SDS011;502;48.746;9.214;2023-05-02T07:38:10;19.67;;;15.70;;
1026;SDS011;502;48.746;9.214;2023-05-02T07:40:37;18.37;;;15.83;;
1026;SDS011;502;48.746;9.214;2023-05-02T07:43:04;18.60;;;15.77;;
1026;SDS011;502;48.746;9.214;2023-05-02T07:45:31;20.33;;;16.80;;
1026;SDS011;502;48.746;9.214;2023-05-02T07:47:58;17.27;;;15.03;;
1026;SDS011;502;48.746;9.214;2023-05-02T07:50:24;19.30;;;16.50;;
1026;SDS011;502;48.746;9.214;2023-05-02T07:52:51;22.17;;;17.83;;
1026;SDS011;502;48.746;9.214;2023-05-02T07:55:17;18.77;;;16.30;;
1026;SDS011;502;48.746;9.214;2023-05-02T07:57:44;22.20;;;17.50;;
1026;SDS011;502;48.746;9.214;2023-05-02T08:00:13;21.53;;;18.47;;
1026;SDS011;502;48.746;9.214;2023-05-02T08:02:40;21.03;;;17.33;;
1026;SDS011;502;48.746;9.214;2023-05-02T08:05:07;21.00;;;17.30;;
1026;SDS011;502;48.746;9.214;2023-05-02T08:07:34;24.17;;;18.17;;
1026;SDS011;502;48.746;9.214;2023-05-02T08:10:00;20.90;;;18.60;;
1026;SDS011;502;48.746;9.214;2023-05-02T08:12:27;25.60;;;18.80;;
1026;SDS011;502;48.746;9.214;2023-05-02T08:14:53;20.67;;;16.57;;
1026;SDS011;502;48.746;9.214;2023-05-02T08:17:21;25.97;;;18.13;;
1026;SDS011;502;48.746;9.214;2023-05-02T08:19:48;24.40;;;18.83;;
1026;SDS011;502;48.746;9.214;2023-05-02T08:22:14;24.77;;;18.87;;
1026;SDS011;502;48.746;9.214;2023-05-02T08:24:41;20.30;;;17.90;;
1026;SDS011;502;48.746;9.214;2023-05-02T08:30:14;24.07;;;19.27;;
1026;SDS011;502;48.746;9.214;2023-05-02T08:32:42;22.37;;;19.20;;
1026;SDS011;502;48.746;9.214;2023-05-02T08:35:09;22.20;;;19.33;;
1026;SDS011;502;48.746;9.214;2023-05-02T08:37:36;23.93;;;19.27;;
1026;SDS011;502;48.746;9.214;2023-05-02T08:40:04;23.60;;;19.60;;
1026;SDS011;502;48.746;9.214;2023-05-02T08:42:31;25.27;;;19.33;;
1026;SDS011;502;48.746;9.214;2023-05-02T08:44:58;26.07;;;21.10;;
1026;SDS011;502;48.746;9.214;2023-05-02T08:47:26;23.97;;;20.60;;
1026;SDS011;502;48.746;9.214;2023-05-02T08:49:53;25.27;;;20.07;;
1026;SDS011;502;48.746;9.214;2023-05-02T08:52:20;22.97;;;19.20;;
1026;SDS011;502;48.746;9.214;2023-05-02T08:54:47;22.27;;;18.90;;
1026;SDS011;502;48.746;9.214;2023-05-02T08:57:15;23.93;;;21.03;;
1026;SDS011;502;48.746;9.214;2023-05-02T08:59:42;24.67;;;20.10;;
1026;SDS011;502;48.746;9.214;2023-05-02T09:04:55;25.17;;;18.97;;
1026;SDS011;502;48.746;9.214;2023-05-02T09:07:26;23.80;;;18.60;;
1026;SDS011;502;48.746;9.214;2023-05-02T09:09:52;23.00;;;18.23;;
1026;SDS011;502;48.746;9.214;2023-05-02T09:12:23;20.03;;;17.43;;
1026;SDS011;502;48.746;9.214;2023-05-02T09:17:39;23.73;;;17.97;;
1026;SDS011;502;48.746;9.214;2023-05-02T09:20:08;22.70;;;19.40;;
1026;SDS011;502;48.746;9.214;2023-05-02T09:22:35;21.10;;;18.43;;
1026;SDS011;502;48.746;9.214;2023-05-02T09:25:02;22.10;;;17.40;;
1026;SDS011;502;48.746;9.214;2023-05-02T09:27:33;21.27;;;17.70;;
1026;SDS011;502;48.746;9.214;2023-05-02T09:30:17;21.50;;;17.97;;
1026;SDS011;502;48.746;9.214;2023-05-02T09:32:44;21.97;;;18.30;;
1026;SDS011;502;48.746;9.214;2023-05-02T09:35:13;21.27;;;17.77;;
1026;SDS011;502;48.746;9.214;2023-05-02T09:37:47;21.93;;;18.70;;
1026;SDS011;502;48.746;9.214;2023-05-02T09:40:17;20.07;;;17.27;;
1026;SDS011;502;48.746;9.214;2023-05-02T09:42:44;21.27;;;18.30;;
1026;SDS011;502;48.746;9.214;2023-05-02T09:45:18;19.23;;;16.60;;
1026;SDS011;502;48.746;9.214;2023-05-02T09:47:45;19.93;;;16.57;;
1026;SDS011;502;48.746;9.214;2023-05-02T09:50:21;19.90;;;17.73;;
1026;SDS011;502;48.746;9.214;2023-05-02T09:53:00;20.67;;;17.97;;
1026;SDS011;502;48.746;9.214;2023-05-02T09:55:27;19.93;;;17.37;;
1026;SDS011;502;48.746;9.214;2023-05-02T09:57:54;21.40;;;17.60;;
1026;SDS011;502;48.746;9.214;2023-05-02T10:00:20;20.33;;;17.50;;
1026;SDS011;502;48.746;9.214;2023-05-02T10:02:49;22.30;;;19.20;;
1026;SDS011;502;48.746;9.214;2023-05-02T10:05:15;20.73;;;17.70;;
1026;SDS011;502;48.746;9.214;2023-05-02T10:07:43;23.47;;;18.73;;
1026;SDS011;502;48.746;9.214;2023-05-02T10:10:11;22.00;;;17.73;;
1026;SDS011;502;48.746;9.214;2023-05-02T10:12:40;22.70;;;20.10;;
1026;SDS011;502;48.746;9.214;2023-05-02T10:15:07;23.07;;;19.70;;
1026;SDS011;502;48.746;9.214;2023-05-02T10:17:38;20.77;;;18.47;;
1026;SDS011;502;48.746;9.214;2023-05-02T10:20:07;27.73;;;18.80;;
1026;SDS011;502;48.746;9.214;2023-05-02T10:22:35;19.23;;;17.20;;
1026;SDS011;502;48.746;9.214;2023-05-02T10:25:03;21.90;;;18.90;;
1026;SDS011;502;48.746;9.214;2023-05-02T10:27:31;22.17;;;19.30;;
1026;SDS011;502;48.746;9.214;2023-05-02T10:29:57;21.90;;;18.87;;
1026;SDS011;502;48.746;9.214;2023-05-02T10:32:26;20.00;;;17.70;;
1026;SDS011;502;48.746;9.214;2023-05-02T10:34:53;22.17;;;19.70;;
1026;SDS011;502;48.746;9.214;2023-05-02T10:37:22;25.83;;;19.70;;
1026;SDS011;502;48.746;9.214;2023-05-02T10:39:49;22.37;;;18.50;;
1026;SDS011;502;48.746;9.214;2023-05-02T10:42:17;20.27;;;17.80;;
1026;SDS011;502;48.746;9.214;2023-05-02T10:44:45;21.50;;;17.00;;
1026;SDS011;502;48.746;9.214;2023-05-02T10:47:19;22.77;;;16.60;;
1026;SDS011;502;48.746;9.214;2023-05-02T10:49:49;18.80;;;15.93;;
1026;SDS011;502;48.746;9.214;2023-05-02T10:52:27;18.07;;;14.53;;
1026;SDS011;502;48.746;9.214;2023-05-02T10:55:18;23.10;;;16.97;;
1026;SDS011;502;48.746;9.214;2023-05-02T11:00:49;19.03;;;17.03;;
1026;SDS011;502;48.746;9.214;2023-05-02T11:06:15;17.80;;;16.00;;
1026;SDS011;502;48.746;9.214;2023-05-02T11:08:42;18.20;;;16.30;;
1026;SDS011;502;48.746;9.214;2023-05-02T11:14:05;17.20;;;14.67;;
1026;SDS011;502;48.746;9.214;2023-05-02T11:22:31;18.07;;;16.17;;
1026;SDS011;502;48.746;9.214;2023-05-02T11:24:58;17.97;;;15.97;;
1026;SDS011;502;48.746;9.214;2023-05-02T11:27:36;21.00;;;14.83;;
1026;SDS011;502;48.746;9.214;2023-05-02T11:30:05;18.00;;;15.90;;
1026;SDS011;502;48.746;9.214;2023-05-02T11:35:33;15.10;;;13.50;;
1026;SDS011;502;48.746;9.214;2023-05-02T11:38:01;14.70;;;13.17;;
1026;SDS011;502;48.746;9.214;2023-05-02T11:40:29;15.60;;;13.73;;
1026;SDS011;502;48.746;9.214;2023-05-02T11:42:57;17.27;;;14.37;;
1026;SDS011;502;48.746;9.214;2023-05-02T11:45:32;17.73;;;15.67;;
1026;SDS011;502;48.746;9.214;2023-05-02T11:48:00;17.97;;;15.20;;
1026;SDS011;502;48.746;9.214;2023-05-02T11:50:27;17.57;;;15.83;;
1026;SDS011;502;48.746;9.214;2023-05-02T11:52:54;17.67;;;15.27;;
1026;SDS011;502;48.746;9.214;2023-05-02T11:55:21;18.70;;;15.60;;
1026;SDS011;502;48.746;9.214;2023-05-02T11:57:48;16.03;;;14.33;;
1026;SDS011;502;48.746;9.214;2023-05-02T12:00:14;18.83;;;16.93;;
1026;SDS011;502;48.746;9.214;2023-05-02T12:02:45;16.40;;;14.57;;
1026;SDS011;502;48.746;9.214;2023-05-02T12:05:12;19.03;;;15.57;;
1026;SDS011;502;48.746;9.214;2023-05-02T12:07:40;17.87;;;15.87;;
1026;SDS011;502;48.746;9.214;2023-05-02T12:10:09;18.20;;;16.30;;
1026;SDS011;502;48.746;9.214;2023-05-02T12:12:36;17.87;;;15.83;;
1026;SDS011;502;48.746;9.214;2023-05-02T12:15:03;22.70;;;17.63;;
1026;SDS011;502;48.746;9.214;2023-05-02T12:17:30;19.47;;;17.37;;
1026;SDS011;502;48.746;9.214;2023-05-02T12:19:59;19.80;;;15.40;;
1026;SDS011;502;48.746;9.214;2023-05-02T12:22:26;21.40;;;17.20;;
1026;SDS011;502;48.746;9.214;2023-05-02T12:24:53;17.87;;;15.13;;
1026;SDS011;502;48.746;9.214;2023-05-02T12:27:20;16.67;;;14.67;;
1026;SDS011;502;48.746;9.214;2023-05-02T12:29:47;18.80;;;15.37;;
1026;SDS011;502;48.746;9.214;2023-05-02T12:32:14;18.13;;;15.50;;
1026;SDS011;502;48.746;9.214;2023-05-02T12:34:46;17.93;;;15.53;;
1026;SDS011;502;48.746;9.214;2023-05-02T12:37:20;19.00;;;15.73;;
1026;SDS011;502;48.746;9.214;2023-05-02T12:39:47;20.23;;;16.90;;
1026;SDS011;502;48.746;9.214;2023-05-02T12:42:14;19.93;;;17.07;;
1026;SDS011;502;48.746;9.214;2023-05-02T12:44:42;21.10;;;17.50;;
1026;SDS011;502;48.746;9.214;2023-05-02T12:47:10;20.87;;;17.50;;
1026;SDS011;502;48.746;9.214;2023-05-02T12:49:47;21.70;;;15.60;;
1026;SDS011;502;48.746;9.214;2023-05-02T12:52:15;19.97;;;16.93;;
1026;SDS011;502;48.746;9.214;2023-05-02T12:54:42;20.23;;;17.17;;
1026;SDS011;502;48.746;9.214;2023-05-02T12:57:10;21.00;;;16.43;;
1026;SDS011;502;48.746;9.214;2023-05-02T12:59:46;20.57;;;16.83;;
1026;SDS011;502;48.746;9.214;2023-05-02T13:02:13;18.60;;;15.67;;
1026;SDS011;502;48.746;9.214;2023-05-02T13:04:39;23.87;;;18.40;;
1026;SDS011;502;48.746;9.214;2023-05-02T13:07:06;20.17;;;17.10;;
1026;SDS011;502;48.746;9.214;2023-05-02T13:09:34;19.30;;;15.93;;
1026;SDS011;502;48.746;9.214;2023-05-02T13:12:01;19.87;;;16.80;;
1026;SDS011;502;48.746;9.214;2023-05-02T13:14:28;18.13;;;15.90;;
1026;SDS011;502;48.746;9.214;2023-05-02T13:16:55;20.40;;;15.23;;
1026;SDS011;502;48.746;9.214;2023-05-02T13:19:21;16.83;;;13.93;;
1026;SDS011;502;48.746;9.214;2023-05-02T13:21:48;18.23;;;14.83;;
1026;SDS011;502;48.746;9.214;2023-05-02T13:24:14;17.60;;;15.40;;
1026;SDS011;502;48.746;9.214;2023-05-02T13:26:43;20.17;;;15.20;;
1026;SDS011;502;48.746;9.214;2023-05-02T13:29:09;18.73;;;16.73;;
1026;SDS011;502;48.746;9.214;2023-05-02T13:31:37;19.10;;;15.60;;
1026;SDS011;502;48.746;9.214;2023-05-02T13:34:03;19.57;;;14.40;;
1026;SDS011;502;48.746;9.214;2023-05-02T13:36:30;16.43;;;13.73;;
1026;SDS011;502;48.746;9.214;2023-05-02T13:38:56;17.33;;;13.33;;
1026;SDS011;502;48.746;9.214;2023-05-02T13:41:23;15.00;;;13.20;;
1026;SDS011;502;48.746;9.214;2023-05-02T13:43:51;16.40;;;14.20;;
1026;SDS011;502;48.746;9.214;2023-05-02T13:46:18;16.73;;;14.40;;
1026;SDS011;502;48.746;9.214;2023-05-02T13:48:45;20.80;;;16.43;;
1026;SDS011;502;48.746;9.214;2023-05-02T13:51:11;18.20;;;15.30;;
1026;SDS011;502;48.746;9.214;2023-05-02T13:53:38;17.87;;;14.90;;
1026;SDS011;502;48.746;9.214;2023-05-02T13:56:05;16.30;;;13.30;;
1026;SDS011;502;48.746;9.214;2023-05-02T13:58:31;16.67;;;14.73;;
1026;SDS011;502;48.746;9.214;2023-05-02T14:00:59;17.27;;;13.47;;
1026;SDS011;502;48.746;9.214;2023-05-02T14:03:26;15.10;;;12.90;;
1026;SDS011;502;48.746;9.214;2023-05-02T14:05:52;14.03;;;12.27;;
1026;SDS011;502;48.746;9.214;2023-05-02T14:08:19;14.83;;;12.50;;
1026;SDS011;502;48.746;9.214;2023-05-02T14:10:45;13.10;;;10.80;;
1026;SDS011;502;48.746;9.214;2023-05-02T14:13:12;14.07;;;11.53;;
1026;SDS011;502;48.746;9.214;2023-05-02T14:15:38;14.37;;;11.77;;
1026;SDS011;502;48.746;9.214;2023-05-02T14:18:06;16.50;;;12.80;;
1026;SDS011;502;48.746;9.214;2023-05-02T14:20:33;14.93;;;12.47;;
1026;SDS011;502;48.746;9.214;2023-05-02T14:23:00;12.80;;;11.00;;
1026;SDS011;502;48.746;9.214;2023-05-02T14:25:26;15.90;;;13.00;;
1026;SDS011;502;48.746;9.214;2023-05-02T14:27:53;15.10;;;12.67;;
1026;SDS011;502;48.746;9.214;2023-05-02T14:30:19;15.90;;;13.53;;
1026;SDS011;502;48.746;9.214;2023-05-02T14:32:46;14.87;;;11.23;;
1026;SDS011;502;48.746;9.214;2023-05-02T14:35:14;13.40;;;11.57;;
1026;SDS011;502;48.746;9.214;2023-05-02T14:37:40;12.30;;;9.80;;
1026;SDS011;502;48.746;9.214;2023-05-02T14:40:09;10.63;;;9.53;;
1026;SDS011;502;48.746;9.214;2023-05-02T14:42:36;10.40;;;7.97;;
1026;SDS011;502;48.746;9.214;2023-05-02T14:45:03;11.07;;;9.00;;
1026;SDS011;502;48.746;9.214;2023-05-02T14:47:30;10.80;;;8.90;;
1026;SDS011;502;48.746;9.214;2023-05-02T14:49:57;10.60;;;8.77;;
1026;SDS011;502;48.746;9.214;2023-05-02T14:52:25;10.40;;;8.80;;
1026;SDS011;502;48.746;9.214;2023-05-02T14:54:51;10.27;;;8.90;;
1026;SDS011;502;48.746;9.214;2023-05-02T14:57:18;10.27;;;8.20;;
1026;SDS011;502;48.746;9.214;2023-05-02T14:59:44;9.80;;;7.93;;
1026;SDS011;502;48.746;9.214;2023-05-02T15:02:11;9.40;;;7.67;;
1026;SDS011;502;48.746;9.214;2023-05-02T15:04:37;10.73;;;8.07;;
1026;SDS011;502;48.746;9.214;2023-05-02T15:07:04;9.20;;;7.60;;
1026;SDS011;502;48.746;9.214;2023-05-02T15:09:32;9.93;;;8.13;;
1026;SDS011;502;48.746;9.214;2023-05-02T15:11:59;10.37;;;8.43;;
1026;SDS011;502;48.746;9.214;2023-05-02T15:14:26;9.17;;;7.20;;
1026;SDS011;502;48.746;9.214;2023-05-02T15:16:53;8.70;;;7.23;;
1026;SDS011;502;48.746;9.214;2023-05-02T15:19:20;9.70;;;7.60;;
1026;SDS011;502;48.746;9.214;2023-05-02T15:21:48;10.23;;;9.07;;
1026;SDS011;502;48.746;9.214;2023-05-02T15:24:17;14.50;;;9.83;;
1026;SDS011;502;48.746;9.214;2023-05-02T15:26:45;10.33;;;8.90;;
1026;SDS011;502;48.746;9.214;2023-05-02T15:29:11;12.37;;;9.60;;
1026;SDS011;502;48.746;9.214;2023-05-02T15:31:38;10.57;;;9.37;;
1026;SDS011;502;48.746;9.214;2023-05-02T15:34:04;10.57;;;7.73;;
1026;SDS011;502;48.746;9.214;2023-05-02T15:36:31;9.97;;;7.87;;
1026;SDS011;502;48.746;9.214;2023-05-02T15:39:01;8.37;;;7.47;;
1026;SDS011;502;48.746;9.214;2023-05-02T15:41:28;9.73;;;7.97;;